This is the latest recevied weather packets stored in our database for station/object KC7KGF. If no packets are shown the sender has not sent any weather packets the latest 10 day(s).
| Time | Temp. | Humidity | Pressure | Rain* | Wind** | Luminosity | Snow |
|---|---|---|---|---|---|---|---|
| 1777957543 | 12.78° C | 54% | 1017.5 hPa | 0 mm | - | - | - |
| 1777955729 | 12.78° C | 54% | 1017.6 hPa | 0 mm | - | - | - |
| 1777953944 | 13.33° C | 54% | 1017.2 hPa | 0 mm | - | - | - |
| 1777952152 | 13.89° C | 51% | 1017 hPa | 0 mm | - | - | - |
| 1777950343 | 13.89° C | 48% | 1016.6 hPa | 0 mm | - | - | - |
| 1777948531 | 14.44° C | 46% | 1016.6 hPa | 0 mm | - | - | - |
| 1777946736 | 14.44° C | 45% | 1016.2 hPa | 0 mm | - | - | - |
| 1777944943 | 15.56° C | 45% | 1016.5 hPa | 0 mm | - | - | - |
| 1777943145 | 16.11° C | 42% | 1016.8 hPa | 0 mm | - | - | - |
| 1777941348 | 16.67° C | 40% | 1016.6 hPa | 0 mm | - | - | - |
| 1777939529 | 16.67° C | 39% | 1016.7 hPa | 0 mm | - | - | - |
| 1777937752 | 16.67° C | 39% | 1017 hPa | 0 mm | - | - | - |
| 1777935928 | 17.22° C | 39% | 1017.3 hPa | 0 mm | - | - | - |
| 1777934142 | 17.78° C | 39% | 1016.9 hPa | 0 mm | - | - | - |
| 1777932331 | 18.33° C | 36% | 1017.4 hPa | 0 mm | - | - | - |
| 1777930536 | 19.44° C | 31% | 1017.6 hPa | 0 mm | - | - | - |
| 1777928726 | 19.44° C | 28% | 1017.3 hPa | 0 mm | - | - | - |
| 1777926941 | 20° C | 29% | 1017.2 hPa | 0 mm | - | - | - |
| 1777925139 | 20° C | 30% | 1017.5 hPa | 0 mm | - | - | - |
| 1777923334 | 20.56° C | 31% | 1017 hPa | 0 mm | - | - | - |
| 1777921552 | 20° C | 34% | 1017.8 hPa | 0 mm | - | - | - |
| 1777919747 | 18.33° C | 37% | 1017.2 hPa | 0 mm | - | - | - |
| 1777917936 | 18.33° C | 36% | 1018.5 hPa | 0 mm | - | - | - |
| 1777916132 | 17.78° C | 39% | 1018.5 hPa | 0 mm | - | - | - |
| 1777914329 | 16.67° C | 41% | 1018.6 hPa | 0 mm | - | - | - |
* Rain latest hour (hover to see other rain measurements)
** Current wind speed in m/s (hover to see current wind gust speed)